Time;durP1;ratioP1;P1;durP2;ratioP2;P2;SDS_P1;SDS_P2;PMS_P1;PMS_P2;Temp;Humidity;BMP_temperature;BMP_pressure;BME280_temperature;BME280_humidity;BME280_pressure;Samples;Min_cycle;Max_cycle;Signal;HPM_P1;HPM_P2
2024/03/08 00:00:09;;;;;;;15.10;14.60;;;;;;;;;;5020285;28;20475;-70
2024/03/08 00:02:37;;;;;;;15.30;14.80;;;;;;;;;;5006910;28;20492;-70
2024/03/08 00:05:05;;;;;;;15.20;14.70;;;;;;;;;;5008571;28;20489;-72
2024/03/08 00:07:32;;;;;;;15.30;14.80;;;;;;;;;;5010384;28;20476;-72
2024/03/08 00:09:59;;;;;;;14.83;14.33;;;;;;;;;;5010259;28;20500;-69
2024/03/08 00:12:28;;;;;;;14.83;14.33;;;;;;;;;;5012110;28;20879;-72
2024/03/08 00:14:55;;;;;;;14.50;14.00;;;;;;;;;;5004746;28;20493;-70
2024/03/08 00:17:23;;;;;;;14.40;13.90;;;;;;;;;;5004718;28;20602;-72
2024/03/08 00:19:50;;;;;;;14.67;14.17;;;;;;;;;;5008944;28;20485;-69
2024/03/08 00:22:17;;;;;;;15.10;14.60;;;;;;;;;;5014896;28;21044;-73
2024/03/08 00:24:45;;;;;;;15.10;14.60;;;;;;;;;;5012533;28;20499;-71
2024/03/08 00:27:12;;;;;;;14.77;14.27;;;;;;;;;;5007382;28;20487;-69
2024/03/08 00:29:40;;;;;;;14.87;14.37;;;;;;;;;;5014810;28;20476;-69
2024/03/08 00:32:08;;;;;;;15.80;15.20;;;;;;;;;;5012042;28;20495;-69
2024/03/08 00:34:37;;;;;;;15.23;14.70;;;;;;;;;;5007318;28;20492;-71
2024/03/08 00:37:05;;;;;;;15.50;14.90;;;;;;;;;;5017040;28;20715;-71
2024/03/08 00:39:33;;;;;;;14.80;14.30;;;;;;;;;;5014510;28;20521;-69
2024/03/08 00:42:00;;;;;;;15.33;14.83;;;;;;;;;;5015853;28;20607;-69
2024/03/08 00:44:27;;;;;;;15.60;15.00;;;;;;;;;;5019450;28;21000;-68
2024/03/08 00:46:58;;;;;;;15.57;14.97;;;;;;;;;;5020584;28;20896;-69
2024/03/08 00:49:25;;;;;;;15.30;14.77;;;;;;;;;;5012743;28;20578;-69
2024/03/08 00:51:53;;;;;;;15.10;14.60;;;;;;;;;;5010271;28;20870;-69
2024/03/08 00:54:20;;;;;;;15.23;14.70;;;;;;;;;;5006685;28;20486;-69
2024/03/08 00:56:47;;;;;;;15.20;14.70;;;;;;;;;;5012229;28;20917;-69
2024/03/08 00:59:15;;;;;;;15.33;14.77;;;;;;;;;;4980707;28;20527;-69
2024/03/08 01:01:43;;;;;;;15.40;14.83;;;;;;;;;;4983686;28;20504;-69
2024/03/08 01:04:12;;;;;;;15.50;14.90;;;;;;;;;;4984720;28;21144;-69
2024/03/08 01:06:39;;;;;;;14.93;14.43;;;;;;;;;;4982245;28;20484;-69
2024/03/08 01:09:07;;;;;;;15.27;14.70;;;;;;;;;;4983046;28;20865;-69
2024/03/08 01:11:34;;;;;;;15.73;15.13;;;;;;;;;;4984924;28;21102;-71
2024/03/08 01:14:02;;;;;;;15.40;14.80;;;;;;;;;;4981814;28;20488;-71
2024/03/08 01:16:29;;;;;;;15.07;14.57;;;;;;;;;;4984004;28;21038;-70
2024/03/08 01:18:56;;;;;;;14.97;14.47;;;;;;;;;;4982678;28;20599;-69
2024/03/08 01:21:25;;;;;;;14.70;14.20;;;;;;;;;;4982864;28;21034;-68
2024/03/08 01:23:52;;;;;;;14.50;14.00;;;;;;;;;;4985325;28;21067;-71
2024/03/08 01:26:19;;;;;;;14.60;14.10;;;;;;;;;;4982659;28;20490;-71
2024/03/08 01:28:46;;;;;;;14.30;13.80;;;;;;;;;;4979812;28;20493;-71
2024/03/08 01:31:13;;;;;;;14.07;13.57;;;;;;;;;;4982280;28;20614;-71
2024/03/08 01:33:41;;;;;;;14.87;14.37;;;;;;;;;;4983884;28;20581;-69
2024/03/08 01:36:08;;;;;;;14.40;13.90;;;;;;;;;;4983801;28;20485;-70
2024/03/08 01:38:37;;;;;;;14.90;14.40;;;;;;;;;;4982605;28;20935;-69
2024/03/08 01:41:04;;;;;;;13.80;13.40;;;;;;;;;;4983582;28;20499;-71
2024/03/08 01:43:31;;;;;;;13.63;13.23;;;;;;;;;;4981006;28;21789;-70
2024/03/08 01:46:00;;;;;;;13.67;13.27;;;;;;;;;;4980586;28;21060;-70
2024/03/08 01:48:29;;;;;;;14.33;13.83;;;;;;;;;;4982381;28;21137;-70
2024/03/08 01:50:57;;;;;;;14.03;13.57;;;;;;;;;;4983159;28;21183;-69
2024/03/08 01:53:25;;;;;;;14.23;13.73;;;;;;;;;;4978902;28;20489;-72
2024/03/08 01:55:55;;;;;;;14.60;14.10;;;;;;;;;;4982707;28;20509;-71
2024/03/08 01:58:23;;;;;;;14.30;13.80;;;;;;;;;;4998854;28;20527;-69
2024/03/08 02:00:50;;;;;;;14.80;14.30;;;;;;;;;;5006766;28;20492;-69
2024/03/08 02:03:18;;;;;;;14.13;13.67;;;;;;;;;;5020475;28;20471;-70
2024/03/08 02:05:45;;;;;;;14.40;13.90;;;;;;;;;;5011972;28;20523;-70
2024/03/08 02:08:14;;;;;;;14.53;14.03;;;;;;;;;;5013785;28;20508;-69
2024/03/08 02:10:41;;;;;;;13.90;13.50;;;;;;;;;;5010437;28;20825;-69
2024/03/08 02:13:10;;;;;;;14.47;13.97;;;;;;;;;;5011637;28;20652;-69
2024/03/08 02:15:53;;;;;;;14.70;14.20;;;;;;;;;;5014306;28;20479;-69
2024/03/08 02:18:20;;;;;;;14.87;14.37;;;;;;;;;;5009591;28;20519;-69
2024/03/08 02:20:48;;;;;;;14.27;13.77;;;;;;;;;;5012168;28;21062;-69
2024/03/08 02:23:16;;;;;;;14.50;14.00;;;;;;;;;;5015207;28;20484;-71
2024/03/08 02:25:43;;;;;;;14.40;13.90;;;;;;;;;;5013463;28;20468;-71
2024/03/08 02:28:12;;;;;;;14.83;14.33;;;;;;;;;;5015215;28;21020;-69
2024/03/08 02:30:39;;;;;;;14.20;13.70;;;;;;;;;;5008659;28;20545;-69
2024/03/08 02:33:06;;;;;;;14.10;13.60;;;;;;;;;;5012299;28;20577;-70
2024/03/08 02:35:34;;;;;;;14.53;14.03;;;;;;;;;;5007408;28;20523;-69
2024/03/08 02:38:03;;;;;;;14.33;13.83;;;;;;;;;;5009254;28;20495;-72
2024/03/08 02:40:32;;;;;;;15.00;14.50;;;;;;;;;;5008245;28;20528;-70
2024/03/08 02:42:59;;;;;;;14.07;13.57;;;;;;;;;;5010152;28;20499;-68
2024/03/08 02:45:26;;;;;;;14.10;13.60;;;;;;;;;;5011869;28;20523;-69
2024/03/08 02:47:53;;;;;;;14.53;14.03;;;;;;;;;;5014973;28;20490;-69
2024/03/08 02:50:22;;;;;;;14.70;14.20;;;;;;;;;;5008541;28;20495;-69
2024/03/08 02:52:49;;;;;;;14.80;14.30;;;;;;;;;;5005529;28;20613;-69
2024/03/08 02:55:17;;;;;;;15.10;14.60;;;;;;;;;;5014816;28;20967;-68
2024/03/08 02:57:47;;;;;;;14.57;14.07;;;;;;;;;;5013892;28;20884;-69
2024/03/08 03:00:15;;;;;;;14.60;14.10;;;;;;;;;;5016952;28;20491;-72
2024/03/08 03:02:43;;;;;;;14.60;14.10;;;;;;;;;;5018322;28;21259;-69
2024/03/08 03:05:11;;;;;;;14.23;13.73;;;;;;;;;;5010255;28;20518;-68
2024/03/08 03:07:38;;;;;;;14.47;13.97;;;;;;;;;;5008846;28;20895;-69
2024/03/08 03:10:06;;;;;;;14.30;13.80;;;;;;;;;;5013112;28;20693;-69
2024/03/08 03:12:35;;;;;;;14.37;13.87;;;;;;;;;;5012034;28;20509;-70
2024/03/08 03:15:02;;;;;;;14.67;14.17;;;;;;;;;;5018194;28;20484;-71
2024/03/08 03:17:30;;;;;;;14.20;13.70;;;;;;;;;;5019094;28;20479;-70
2024/03/08 03:19:57;;;;;;;13.83;13.43;;;;;;;;;;5011697;28;21084;-70
2024/03/08 03:22:25;;;;;;;14.47;13.97;;;;;;;;;;5016573;28;20855;-72
2024/03/08 03:24:53;;;;;;;14.63;14.13;;;;;;;;;;5015839;28;20576;-72
2024/03/08 03:27:20;;;;;;;14.63;14.13;;;;;;;;;;5017488;28;20481;-70
2024/03/08 03:29:49;;;;;;;14.30;13.80;;;;;;;;;;5018598;28;20831;-71
2024/03/08 03:32:18;;;;;;;14.47;13.97;;;;;;;;;;5017027;28;20479;-69
2024/03/08 03:34:45;;;;;;;14.20;13.70;;;;;;;;;;5014051;28;21014;-69
2024/03/08 03:37:13;;;;;;;14.33;13.83;;;;;;;;;;5013232;28;20493;-69
2024/03/08 03:39:48;;;;;;;14.43;13.93;;;;;;;;;;5010796;28;20485;-69
2024/03/08 03:42:16;;;;;;;14.27;13.77;;;;;;;;;;5011840;28;20851;-68
2024/03/08 03:44:44;;;;;;;14.20;13.70;;;;;;;;;;5016247;28;20528;-68
2024/03/08 03:47:13;;;;;;;14.20;13.70;;;;;;;;;;5010030;28;20494;-69
2024/03/08 03:49:40;;;;;;;14.37;13.87;;;;;;;;;;5011585;28;20567;-67
2024/03/08 03:52:07;;;;;;;14.20;13.70;;;;;;;;;;5011289;28;20576;-71
2024/03/08 03:54:34;;;;;;;14.20;13.70;;;;;;;;;;5016596;28;20965;-68
2024/03/08 03:57:02;;;;;;;14.53;14.03;;;;;;;;;;5016233;28;20487;-70
2024/03/08 03:59:29;;;;;;;14.37;13.87;;;;;;;;;;5016974;28;20481;-69
2024/03/08 04:01:56;;;;;;;14.50;14.00;;;;;;;;;;5017641;28;20498;-69
2024/03/08 04:04:25;;;;;;;14.33;13.83;;;;;;;;;;5017034;28;20499;-70
2024/03/08 04:06:51;;;;;;;14.73;14.23;;;;;;;;;;5012085;28;20613;-68
2024/03/08 04:09:19;;;;;;;14.43;13.93;;;;;;;;;;5012451;28;21018;-68
2024/03/08 04:11:46;;;;;;;14.30;13.80;;;;;;;;;;5013997;28;20915;-68
2024/03/08 04:14:13;;;;;;;14.63;14.13;;;;;;;;;;5012981;28;20487;-68
2024/03/08 04:16:40;;;;;;;14.33;13.83;;;;;;;;;;5014974;28;20499;-68
2024/03/08 04:19:09;;;;;;;15.10;14.60;;;;;;;;;;5017027;28;20504;-67
2024/03/08 04:21:38;;;;;;;14.67;14.17;;;;;;;;;;5013254;28;20482;-69
2024/03/08 04:24:06;;;;;;;14.90;14.40;;;;;;;;;;5004798;28;20586;-70
2024/03/08 04:26:33;;;;;;;14.30;13.80;;;;;;;;;;5021702;28;20467;-71
2024/03/08 04:29:01;;;;;;;14.60;14.10;;;;;;;;;;5025083;28;20482;-69
2024/03/08 04:31:28;;;;;;;13.97;13.57;;;;;;;;;;5024439;28;20474;-71
2024/03/08 04:33:55;;;;;;;13.80;13.40;;;;;;;;;;5029149;28;20812;-71
2024/03/08 04:36:24;;;;;;;14.17;13.67;;;;;;;;;;5029213;28;20477;-70
2024/03/08 04:38:53;;;;;;;14.40;13.90;;;;;;;;;;5028968;28;20460;-68
2024/03/08 04:41:20;;;;;;;14.43;13.93;;;;;;;;;;5019763;28;21085;-69
2024/03/08 04:43:48;;;;;;;14.33;13.83;;;;;;;;;;5026693;28;21135;-68
2024/03/08 04:46:16;;;;;;;14.13;13.63;;;;;;;;;;5028595;28;20456;-68
2024/03/08 04:48:43;;;;;;;14.50;14.00;;;;;;;;;;5029060;28;20502;-71
2024/03/08 04:51:10;;;;;;;14.40;13.90;;;;;;;;;;5024963;28;20467;-67
2024/03/08 04:53:38;;;;;;;14.17;13.67;;;;;;;;;;5023530;28;20490;-69
2024/03/08 04:56:07;;;;;;;14.47;13.97;;;;;;;;;;5028742;28;20483;-67
2024/03/08 04:58:34;;;;;;;14.17;13.67;;;;;;;;;;5023035;28;20473;-70
2024/03/08 05:01:02;;;;;;;14.80;14.30;;;;;;;;;;5024611;28;21000;-68
2024/03/08 05:03:30;;;;;;;14.70;14.20;;;;;;;;;;5016846;28;20496;-69
2024/03/08 05:05:57;;;;;;;14.60;14.10;;;;;;;;;;5021691;28;20502;-68
2024/03/08 05:08:24;;;;;;;14.73;14.23;;;;;;;;;;5023075;28;20455;-70
2024/03/08 05:10:51;;;;;;;14.70;14.20;;;;;;;;;;5020363;28;20474;-68
2024/03/08 05:13:20;;;;;;;14.67;14.17;;;;;;;;;;5025731;28;20464;-69
2024/03/08 05:15:50;;;;;;;14.97;14.47;;;;;;;;;;5021022;28;20768;-71
2024/03/08 05:18:17;;;;;;;15.17;14.60;;;;;;;;;;5027587;28;20455;-67
2024/03/08 05:20:44;;;;;;;14.70;14.20;;;;;;;;;;5027059;28;20467;-72
2024/03/08 05:23:12;;;;;;;15.00;14.50;;;;;;;;;;5022166;28;20518;-69
2024/03/08 05:25:39;;;;;;;14.70;14.20;;;;;;;;;;5024488;28;20458;-72
2024/03/08 05:28:06;;;;;;;14.30;13.80;;;;;;;;;;5027443;28;20459;-70
2024/03/08 05:30:35;;;;;;;14.47;13.97;;;;;;;;;;5021077;28;20475;-67
2024/03/08 05:33:03;;;;;;;15.07;14.57;;;;;;;;;;5020920;28;20567;-68
2024/03/08 05:35:32;;;;;;;14.30;13.80;;;;;;;;;;5027210;28;20551;-70
2024/03/08 05:37:59;;;;;;;14.60;14.10;;;;;;;;;;5023475;28;20471;-68
2024/03/08 05:40:26;;;;;;;14.73;14.23;;;;;;;;;;5023081;28;20651;-71
2024/03/08 05:42:54;;;;;;;14.90;14.40;;;;;;;;;;5025134;28;20498;-67
2024/03/08 05:45:21;;;;;;;14.60;14.10;;;;;;;;;;5026979;28;20464;-70
2024/03/08 05:47:50;;;;;;;14.77;14.27;;;;;;;;;;5020156;28;20510;-69
2024/03/08 05:50:19;;;;;;;14.73;14.23;;;;;;;;;;5020219;28;20488;-69
2024/03/08 05:52:48;;;;;;;14.63;14.13;;;;;;;;;;5022598;28;20462;-71
2024/03/08 05:55:15;;;;;;;15.30;14.70;;;;;;;;;;5025921;28;20487;-70
2024/03/08 05:57:42;;;;;;;14.70;14.20;;;;;;;;;;5019773;28;20532;-69
2024/03/08 06:00:11;;;;;;;14.83;14.33;;;;;;;;;;5022954;28;20469;-70
2024/03/08 06:02:40;;;;;;;14.97;14.43;;;;;;;;;;5021427;28;20935;-68
2024/03/08 06:05:10;;;;;;;14.80;14.30;;;;;;;;;;5026551;28;20520;-68
2024/03/08 06:07:40;;;;;;;14.50;14.00;;;;;;;;;;5021871;28;20526;-68
2024/03/08 06:10:09;;;;;;;14.67;14.17;;;;;;;;;;5014962;28;21115;-71
2024/03/08 06:12:40;;;;;;;14.40;13.90;;;;;;;;;;5024070;28;21042;-72
2024/03/08 06:15:08;;;;;;;14.40;13.90;;;;;;;;;;5022773;28;21081;-71
2024/03/08 06:17:35;;;;;;;15.20;14.60;;;;;;;;;;5026894;28;20463;-71
2024/03/08 06:20:03;;;;;;;15.33;14.73;;;;;;;;;;5023279;28;20473;-73
2024/03/08 06:22:32;;;;;;;14.40;13.90;;;;;;;;;;5023217;28;20855;-70
2024/03/08 06:24:59;;;;;;;15.00;14.50;;;;;;;;;;5022381;28;20464;-72
2024/03/08 06:27:26;;;;;;;14.80;14.30;;;;;;;;;;5024843;28;20465;-70
2024/03/08 06:29:54;;;;;;;15.20;14.60;;;;;;;;;;5018145;28;20471;-69
2024/03/08 06:32:21;;;;;;;14.43;13.93;;;;;;;;;;5021891;28;20466;-70
2024/03/08 06:34:49;;;;;;;14.43;13.93;;;;;;;;;;5026450;28;20468;-69
2024/03/08 06:37:21;;;;;;;14.67;14.17;;;;;;;;;;5025149;28;20589;-68
2024/03/08 06:39:50;;;;;;;13.90;13.40;;;;;;;;;;5019975;28;20973;-70
2024/03/08 06:42:18;;;;;;;14.13;13.63;;;;;;;;;;5023232;28;20455;-73
2024/03/08 06:44:49;;;;;;;15.40;14.80;;;;;;;;;;5025073;28;20482;-70
2024/03/08 06:47:16;;;;;;;14.30;13.80;;;;;;;;;;5023893;28;20548;-69
2024/03/08 06:49:44;;;;;;;14.27;13.77;;;;;;;;;;5013271;28;20466;-69
2024/03/08 06:52:12;;;;;;;14.23;13.73;;;;;;;;;;5024694;28;20516;-69
2024/03/08 06:54:40;;;;;;;14.93;14.43;;;;;;;;;;5022957;28;20476;-74
2024/03/08 06:57:10;;;;;;;14.40;13.90;;;;;;;;;;5013680;28;20524;-71
2024/03/08 06:59:37;;;;;;;13.93;13.43;;;;;;;;;;5025905;28;20536;-70
2024/03/08 07:02:04;;;;;;;14.23;13.73;;;;;;;;;;5022821;28;20495;-71
2024/03/08 07:04:33;;;;;;;14.37;13.87;;;;;;;;;;5021298;28;20812;-69
2024/03/08 07:07:01;;;;;;;13.87;13.37;;;;;;;;;;5024399;28;20563;-69
2024/03/08 07:09:29;;;;;;;14.20;13.70;;;;;;;;;;5022851;28;21185;-67
2024/03/08 07:11:57;;;;;;;13.70;13.27;;;;;;;;;;5024426;28;20478;-71
2024/03/08 07:14:26;;;;;;;14.20;13.70;;;;;;;;;;5023095;28;20996;-69
2024/03/08 07:16:55;;;;;;;13.90;13.40;;;;;;;;;;5023596;28;20459;-71
2024/03/08 07:19:23;;;;;;;13.90;13.40;;;;;;;;;;5025992;28;20467;-69
2024/03/08 07:21:51;;;;;;;13.97;13.47;;;;;;;;;;5019121;28;20554;-70
2024/03/08 07:24:37;;;;;;;14.13;13.63;;;;;;;;;;5023441;28;20511;-67
2024/03/08 07:27:05;;;;;;;14.90;14.40;;;;;;;;;;5022169;28;20468;-72
2024/03/08 07:29:33;;;;;;;14.60;14.10;;;;;;;;;;5026120;28;20472;-72
2024/03/08 07:32:12;;;;;;;15.03;14.53;;;;;;;;;;5020709;28;20467;-68
2024/03/08 07:34:39;;;;;;;15.90;15.30;;;;;;;;;;5018017;28;20476;-69
2024/03/08 07:37:10;;;;;;;15.63;15.03;;;;;;;;;;5025776;28;20663;-70
2024/03/08 07:39:38;;;;;;;14.83;14.33;;;;;;;;;;5022707;28;20610;-70
2024/03/08 07:42:05;;;;;;;14.50;14.00;;;;;;;;;;5020598;28;20465;-68
2024/03/08 07:44:34;;;;;;;15.37;14.77;;;;;;;;;;5021958;28;20484;-70
2024/03/08 07:47:01;;;;;;;15.67;15.07;;;;;;;;;;5028831;28;20939;-73
2024/03/08 07:49:28;;;;;;;16.00;15.40;;;;;;;;;;5016019;28;20475;-68
2024/03/08 07:51:55;;;;;;;15.50;14.90;;;;;;;;;;5020969;28;20530;-71
2024/03/08 07:54:22;;;;;;;15.53;14.93;;;;;;;;;;5014635;28;20473;-71
2024/03/08 07:56:51;;;;;;;15.50;14.90;;;;;;;;;;5014181;28;20503;-71
2024/03/08 07:59:18;;;;;;;15.73;15.13;;;;;;;;;;5015670;28;20837;-69
2024/03/08 08:01:47;;;;;;;15.57;14.97;;;;;;;;;;5013865;28;20505;-69
2024/03/08 08:04:17;;;;;;;15.37;14.77;;;;;;;;;;5018983;28;20542;-69
2024/03/08 08:06:45;;;;;;;15.50;14.90;;;;;;;;;;5017822;28;20462;-73
2024/03/08 08:09:14;;;;;;;15.20;14.67;;;;;;;;;;5016663;28;20473;-68
2024/03/08 08:11:43;;;;;;;14.90;14.40;;;;;;;;;;5017376;28;20829;-69
2024/03/08 08:14:10;;;;;;;15.43;14.83;;;;;;;;;;5016840;28;20471;-70
2024/03/08 08:16:37;;;;;;;15.63;15.03;;;;;;;;;;5016287;28;20547;-69
2024/03/08 08:19:07;;;;;;;15.90;15.30;;;;;;;;;;5017855;28;20527;-68
2024/03/08 08:21:36;;;;;;;15.67;15.07;;;;;;;;;;5018491;28;20917;-71
2024/03/08 08:24:04;;;;;;;15.97;15.37;;;;;;;;;;5014482;28;20496;-68
2024/03/08 08:26:31;;;;;;;15.83;15.23;;;;;;;;;;5017038;28;20547;-68
2024/03/08 08:29:00;;;;;;;16.03;15.43;;;;;;;;;;5018027;28;20490;-68
2024/03/08 08:31:27;;;;;;;16.33;15.73;;;;;;;;;;5016241;28;20892;-69
2024/03/08 08:33:58;;;;;;;15.97;15.37;;;;;;;;;;5016253;28;20484;-68
2024/03/08 08:36:29;;;;;;;16.70;16.10;;;;;;;;;;5016208;28;20599;-70
2024/03/08 08:38:58;;;;;;;16.27;15.67;;;;;;;;;;5015099;28;20873;-71
2024/03/08 08:41:25;;;;;;;16.30;15.70;;;;;;;;;;5016728;28;20465;-69
2024/03/08 08:43:52;;;;;;;16.30;15.70;;;;;;;;;;5016320;28;20500;-68
2024/03/08 08:46:19;;;;;;;16.30;15.70;;;;;;;;;;5017223;28;20476;-70
2024/03/08 08:48:46;;;;;;;15.70;15.10;;;;;;;;;;5018187;28;20924;-70
2024/03/08 08:51:15;;;;;;;16.10;15.50;;;;;;;;;;5015322;28;20477;-71
2024/03/08 08:53:45;;;;;;;16.07;15.47;;;;;;;;;;5011414;28;20466;-68
2024/03/08 08:56:13;;;;;;;16.10;15.50;;;;;;;;;;5015342;28;20521;-68
2024/03/08 08:58:41;;;;;;;16.37;15.77;;;;;;;;;;5016741;28;20465;-68
2024/03/08 09:01:09;;;;;;;16.43;15.83;;;;;;;;;;5018236;28;20497;-68
2024/03/08 09:03:37;;;;;;;16.00;15.40;;;;;;;;;;5017551;28;20838;-68
2024/03/08 09:06:05;;;;;;;16.70;16.10;;;;;;;;;;5014911;28;20470;-69
2024/03/08 09:08:32;;;;;;;16.20;15.60;;;;;;;;;;5017228;28;20505;-69
2024/03/08 09:11:00;;;;;;;16.03;15.43;;;;;;;;;;5014804;28;20474;-71
2024/03/08 09:13:27;;;;;;;16.70;16.10;;;;;;;;;;5019651;28;20508;-68
2024/03/08 09:15:55;;;;;;;15.87;15.30;;;;;;;;;;5017485;28;20839;-69
2024/03/08 09:18:23;;;;;;;16.13;15.53;;;;;;;;;;5015949;28;20895;-71
2024/03/08 09:20:50;;;;;;;16.40;15.80;;;;;;;;;;5015245;28;20556;-69
2024/03/08 09:23:18;;;;;;;16.77;16.17;;;;;;;;;;5011230;28;20497;-73
2024/03/08 09:25:45;;;;;;;16.53;15.93;;;;;;;;;;5013343;28;20582;-69
2024/03/08 09:28:13;;;;;;;16.33;15.73;;;;;;;;;;5016020;28;20476;-69
2024/03/08 09:30:41;;;;;;;16.63;16.03;;;;;;;;;;5020248;28;20473;-71
2024/03/08 09:33:09;;;;;;;16.50;15.90;;;;;;;;;;5014967;28;20462;-69
2024/03/08 09:35:37;;;;;;;16.70;16.10;;;;;;;;;;5014148;28;20459;-69
2024/03/08 09:38:04;;;;;;;16.10;15.50;;;;;;;;;;5015103;28;20559;-69
2024/03/08 09:40:32;;;;;;;16.30;15.70;;;;;;;;;;5016814;28;20476;-71
2024/03/08 09:42:59;;;;;;;16.43;15.83;;;;;;;;;;5017941;28;20468;-69
2024/03/08 09:45:29;;;;;;;16.50;15.90;;;;;;;;;;5018357;28;20569;-70
2024/03/08 09:47:56;;;;;;;15.83;15.33;;;;;;;;;;5016149;28;20543;-71
2024/03/08 09:50:23;;;;;;;15.80;15.30;;;;;;;;;;5013418;28;20467;-70
2024/03/08 09:52:51;;;;;;;15.50;15.00;;;;;;;;;;5013218;28;20584;-69
2024/03/08 09:55:21;;;;;;;15.97;15.47;;;;;;;;;;5016772;28;20471;-69
2024/03/08 09:58:16;;;;;;;16.20;15.70;;;;;;;;;;5015315;28;20474;-70
2024/03/08 10:00:43;;;;;;;16.00;15.50;;;;;;;;;;5015342;28;20537;-69
2024/03/08 10:03:10;;;;;;;15.87;15.37;;;;;;;;;;5016461;28;20458;-69
2024/03/08 10:05:38;;;;;;;15.80;15.30;;;;;;;;;;5014188;28;20873;-69
2024/03/08 10:08:06;;;;;;;16.30;15.70;;;;;;;;;;5015016;28;20512;-69
2024/03/08 10:10:35;;;;;;;15.83;15.33;;;;;;;;;;5016220;28;20545;-70
2024/03/08 10:13:03;;;;;;;15.43;14.93;;;;;;;;;;5014738;28;20472;-69
2024/03/08 10:15:30;;;;;;;16.03;15.47;;;;;;;;;;5015701;28;20486;-69
2024/03/08 10:17:59;;;;;;;15.33;14.83;;;;;;;;;;5014904;28;20474;-68
2024/03/08 10:20:27;;;;;;;15.63;15.13;;;;;;;;;;5012071;28;20482;-69
2024/03/08 10:22:54;;;;;;;15.37;14.87;;;;;;;;;;5013672;28;20519;-70
2024/03/08 10:25:21;;;;;;;15.60;15.10;;;;;;;;;;5015182;28;20487;-69
2024/03/08 10:27:48;;;;;;;16.13;15.53;;;;;;;;;;5018201;28;20488;-70
2024/03/08 10:30:19;;;;;;;15.10;14.60;;;;;;;;;;5013488;28;20466;-70
2024/03/08 10:32:47;;;;;;;15.63;15.13;;;;;;;;;;5013527;28;20477;-69
2024/03/08 10:35:16;;;;;;;15.30;14.80;;;;;;;;;;5016249;28;20476;-71
2024/03/08 10:37:47;;;;;;;15.70;15.20;;;;;;;;;;5016290;28;20456;-70
2024/03/08 10:40:17;;;;;;;15.97;15.47;;;;;;;;;;5009871;28;20970;-70
2024/03/08 10:42:49;;;;;;;15.53;15.03;;;;;;;;;;5015473;28;20464;-71
2024/03/08 10:45:17;;;;;;;15.10;14.60;;;;;;;;;;5014119;28;20501;-69
2024/03/08 10:47:47;;;;;;;15.80;15.27;;;;;;;;;;5012119;28;20475;-70
2024/03/08 10:50:21;;;;;;;15.33;14.83;;;;;;;;;;5008761;28;20474;-70
2024/03/08 10:52:50;;;;;;;15.30;14.80;;;;;;;;;;5017076;28;20465;-70
2024/03/08 10:55:17;;;;;;;15.83;15.33;;;;;;;;;;5008899;28;21015;-71
2024/03/08 10:57:44;;;;;;;15.40;14.90;;;;;;;;;;5008753;28;20896;-70
2024/03/08 11:00:13;;;;;;;15.53;15.03;;;;;;;;;;5015381;28;20571;-71
2024/03/08 11:02:40;;;;;;;15.33;14.83;;;;;;;;;;5015023;28;20473;-70
2024/03/08 11:05:12;;;;;;;15.40;14.90;;;;;;;;;;5015454;28;20505;-70
2024/03/08 11:07:44;;;;;;;15.90;15.40;;;;;;;;;;5013821;28;20515;-70
2024/03/08 11:10:20;;;;;;;15.13;14.63;;;;;;;;;;5013067;28;21054;-72
2024/03/08 11:12:48;;;;;;;15.47;14.97;;;;;;;;;;5015961;28;20720;-71
2024/03/08 11:15:18;;;;;;;15.63;15.13;;;;;;;;;;5013352;28;20478;-70
2024/03/08 11:17:49;;;;;;;15.33;14.83;;;;;;;;;;5015336;28;20469;-69
2024/03/08 11:20:17;;;;;;;15.23;14.73;;;;;;;;;;5019006;28;20846;-70
2024/03/08 11:22:50;;;;;;;15.10;14.60;;;;;;;;;;5019406;28;20565;-71
2024/03/08 11:25:39;;;;;;;14.93;14.43;;;;;;;;;;5017751;28;20493;-70
2024/03/08 11:28:17;;;;;;;15.20;14.70;;;;;;;;;;5017251;28;20961;-72
2024/03/08 11:30:46;;;;;;;15.50;15.00;;;;;;;;;;5018194;28;20470;-71
2024/03/08 11:33:14;;;;;;;15.60;15.10;;;;;;;;;;5015878;28;20547;-70
2024/03/08 11:35:42;;;;;;;15.30;14.80;;;;;;;;;;5017598;28;20481;-71
2024/03/08 11:38:10;;;;;;;16.00;15.40;;;;;;;;;;5018000;28;20467;-71
2024/03/08 11:40:39;;;;;;;15.47;14.97;;;;;;;;;;5017597;28;20465;-71
2024/03/08 11:43:07;;;;;;;16.00;15.40;;;;;;;;;;5016893;28;20471;-71
2024/03/08 11:45:35;;;;;;;15.97;15.37;;;;;;;;;;5018461;28;21023;-71
2024/03/08 11:48:04;;;;;;;15.73;15.23;;;;;;;;;;5019386;28;20548;-72
2024/03/08 11:50:32;;;;;;;16.10;15.60;;;;;;;;;;5020647;28;20470;-72
2024/03/08 11:53:03;;;;;;;16.60;16.00;;;;;;;;;;5017051;28;20468;-71
2024/03/08 11:55:35;;;;;;;16.60;16.00;;;;;;;;;;5020946;28;20487;-72
2024/03/08 11:58:04;;;;;;;15.40;14.90;;;;;;;;;;5017800;28;20520;-71
2024/03/08 12:00:35;;;;;;;16.67;16.07;;;;;;;;;;5019791;28;20507;-71
2024/03/08 12:03:05;;;;;;;16.30;15.70;;;;;;;;;;5017440;28;20935;-70
2024/03/08 12:05:34;;;;;;;16.33;15.73;;;;;;;;;;5016420;28;20509;-71
2024/03/08 12:08:01;;;;;;;15.70;15.20;;;;;;;;;;5012468;28;20470;-71
2024/03/08 12:10:28;;;;;;;16.43;15.83;;;;;;;;;;5019268;28;20467;-71
2024/03/08 12:13:00;;;;;;;15.50;15.00;;;;;;;;;;5018362;28;20473;-73
2024/03/08 12:15:27;;;;;;;15.30;14.80;;;;;;;;;;5018203;28;20469;-71
2024/03/08 12:17:55;;;;;;;15.30;14.80;;;;;;;;;;5017094;28;20471;-72
2024/03/08 12:20:23;;;;;;;15.90;15.37;;;;;;;;;;5016709;28;20471;-73
2024/03/08 12:22:52;;;;;;;15.90;15.33;;;;;;;;;;5005964;28;20574;-72
2024/03/08 12:25:20;;;;;;;15.57;15.00;;;;;;;;;;5013172;28;20521;-72
2024/03/08 12:27:47;;;;;;;16.00;15.40;;;;;;;;;;5019520;28;20458;-72
2024/03/08 12:30:22;;;;;;;15.90;15.30;;;;;;;;;;5017354;28;20892;-73
2024/03/08 12:32:54;;;;;;;16.03;15.43;;;;;;;;;;5016259;28;20467;-72
2024/03/08 12:35:22;;;;;;;15.70;15.10;;;;;;;;;;5020263;28;20799;-72
2024/03/08 12:37:51;;;;;;;15.93;15.33;;;;;;;;;;5016005;28;20478;-73
2024/03/08 12:40:18;;;;;;;16.23;15.63;;;;;;;;;;5015042;28;20547;-72
2024/03/08 12:42:47;;;;;;;15.70;15.10;;;;;;;;;;5016678;28;20461;-73
2024/03/08 12:45:14;;;;;;;15.90;15.30;;;;;;;;;;5016323;28;20503;-72
2024/03/08 12:47:43;;;;;;;15.90;15.30;;;;;;;;;;5011619;28;20933;-73
2024/03/08 12:50:11;;;;;;;15.50;15.00;;;;;;;;;;5017723;28;20556;-72
2024/03/08 12:52:38;;;;;;;15.87;15.27;;;;;;;;;;5015628;28;20466;-73
2024/03/08 12:55:07;;;;;;;15.90;15.30;;;;;;;;;;5013785;28;20955;-73
2024/03/08 12:57:35;;;;;;;15.67;15.13;;;;;;;;;;5014736;28;20466;-72
2024/03/08 13:00:04;;;;;;;15.30;14.80;;;;;;;;;;5015928;28;20475;-72
2024/03/08 13:02:32;;;;;;;15.30;14.80;;;;;;;;;;5010640;28;20483;-74
2024/03/08 13:05:00;;;;;;;15.47;14.97;;;;;;;;;;5015252;28;20489;-73
2024/03/08 13:07:28;;;;;;;15.70;15.10;;;;;;;;;;5014693;28;20980;-73
2024/03/08 13:09:55;;;;;;;15.20;14.70;;;;;;;;;;5015976;28;20473;-73
2024/03/08 13:12:23;;;;;;;15.60;15.00;;;;;;;;;;5016692;28;20481;-73
2024/03/08 13:14:51;;;;;;;15.90;15.30;;;;;;;;;;5016178;28;20952;-72
2024/03/08 13:17:19;;;;;;;15.50;15.00;;;;;;;;;;5018264;28;20466;-72
2024/03/08 13:19:46;;;;;;;15.30;14.80;;;;;;;;;;5015254;28;20473;-72
2024/03/08 13:22:16;;;;;;;15.20;14.70;;;;;;;;;;5013258;28;20552;-73
2024/03/08 13:24:45;;;;;;;15.00;14.50;;;;;;;;;;5018340;28;20505;-74
2024/03/08 13:27:19;;;;;;;14.70;14.20;;;;;;;;;;5016710;28;20894;-72
2024/03/08 13:29:47;;;;;;;15.03;14.53;;;;;;;;;;5014156;28;20531;-74
2024/03/08 13:32:14;;;;;;;15.00;14.50;;;;;;;;;;5014271;28;20466;-73
2024/03/08 13:34:42;;;;;;;15.40;14.90;;;;;;;;;;5013594;28;20468;-73
2024/03/08 13:37:09;;;;;;;15.30;14.80;;;;;;;;;;5016353;28;20469;-72
2024/03/08 13:39:43;;;;;;;15.57;15.07;;;;;;;;;;5015772;28;20472;-73
2024/03/08 13:42:12;;;;;;;15.53;15.03;;;;;;;;;;5015355;28;20564;-73
2024/03/08 13:44:40;;;;;;;15.57;15.07;;;;;;;;;;5014566;28;20794;-72
2024/03/08 13:47:07;;;;;;;15.10;14.60;;;;;;;;;;5016056;28;20462;-73
2024/03/08 13:49:36;;;;;;;16.20;15.63;;;;;;;;;;5017408;28;20474;-73
2024/03/08 13:52:04;;;;;;;15.40;14.90;;;;;;;;;;5013431;28;20471;-74
2024/03/08 13:54:31;;;;;;;15.50;15.00;;;;;;;;;;5016319;28;20471;-74
2024/03/08 13:57:00;;;;;;;15.60;15.10;;;;;;;;;;5019177;28;20849;-74
2024/03/08 13:59:29;;;;;;;16.10;15.50;;;;;;;;;;5013823;28;20878;-73
2024/03/08 14:01:57;;;;;;;15.60;15.10;;;;;;;;;;5013972;28;20496;-72
2024/03/08 14:04:26;;;;;;;14.93;14.43;;;;;;;;;;5014591;28;20471;-73
2024/03/08 14:06:56;;;;;;;15.70;15.20;;;;;;;;;;5017115;28;21287;-73
2024/03/08 14:09:24;;;;;;;15.30;14.80;;;;;;;;;;5017629;28;20473;-73
2024/03/08 14:11:53;;;;;;;15.57;15.07;;;;;;;;;;5014691;28;20473;-73
2024/03/08 14:14:23;;;;;;;15.70;15.20;;;;;;;;;;5016654;28;20457;-74
2024/03/08 14:16:52;;;;;;;16.03;15.47;;;;;;;;;;5017028;28;20500;-73
2024/03/08 14:19:19;;;;;;;16.27;15.67;;;;;;;;;;5014181;28;20988;-74
2024/03/08 14:21:47;;;;;;;15.97;15.37;;;;;;;;;;5013992;28;20818;-75